Time;durP1;ratioP1;P1;durP2;ratioP2;P2;SDS_P1;SDS_P2;PMS_P1;PMS_P2;Temp;Humidity;BMP_temperature;BMP_pressure;BME280_temperature;BME280_humidity;BME280_pressure;Samples;Min_cycle;Max_cycle;Signal;HPM_P1;HPM_P2
2021/05/10 00:00:36;;;;;;;4.90;1.67;;;;;;;12.43;51.67;100822.00;5053086;28;20032;-74
2021/05/10 00:03:02;;;;;;;3.03;1.63;;;;;;;12.54;51.55;100824.47;5060377;28;20033;-78
2021/05/10 00:05:27;;;;;;;2.47;1.60;;;;;;;12.60;51.19;100820.41;5059345;28;20037;-69
2021/05/10 00:07:53;;;;;;;9.55;1.83;;;;;;;12.60;50.65;100823.88;5059605;28;20053;-75
2021/05/10 00:10:20;;;;;;;5.97;1.70;;;;;;;12.54;51.44;100824.47;5059842;28;20223;-67
2021/05/10 00:12:45;;;;;;;6.60;1.83;;;;;;;12.58;51.28;100823.19;5059358;28;20052;-67
2021/05/10 00:15:12;;;;;;;5.85;1.70;;;;;;;12.56;51.69;100821.69;5060097;28;20036;-75
2021/05/10 00:17:37;;;;;;;5.60;2.45;;;;;;;12.62;52.09;100821.06;5059255;28;20306;-75
2021/05/10 00:20:03;;;;;;;3.03;1.55;;;;;;;12.73;51.08;100827.03;5059227;28;20041;-69
2021/05/10 00:22:29;;;;;;;4.50;1.75;;;;;;;12.55;51.43;100836.78;5059572;28;20048;-76
2021/05/10 00:24:54;;;;;;;4.30;2.10;;;;;;;12.50;52.09;100815.13;5059135;28;20037;-77
2021/05/10 00:27:20;;;;;;;1.75;1.50;;;;;;;12.57;51.54;100815.38;5062672;28;20075;-69
2021/05/10 00:29:45;;;;;;;5.43;2.08;;;;;;;12.75;50.85;100829.53;5062491;28;20256;-69
2021/05/10 00:32:11;;;;;;;4.13;1.73;;;;;;;12.70;49.02;100798.09;5059345;28;20052;-69
2021/05/10 00:34:36;;;;;;;4.45;1.70;;;;;;;12.74;48.84;100817.22;5059224;28;20261;-69
2021/05/10 00:37:02;;;;;;;2.67;1.50;;;;;;;12.74;48.51;100817.22;5059826;28;20359;-67
2021/05/10 00:39:27;;;;;;;2.30;1.75;;;;;;;12.70;49.80;100821.16;5058380;28;20032;-67
2021/05/10 00:41:54;;;;;;;4.25;1.40;;;;;;;12.61;49.99;100812.28;5057920;28;20138;-67
2021/05/10 00:44:19;;;;;;;4.38;1.98;;;;;;;12.71;50.25;100814.88;5058785;28;20029;-74
2021/05/10 00:46:45;;;;;;;4.40;2.00;;;;;;;12.54;50.87;100805.03;5058722;28;20100;-69
2021/05/10 00:49:11;;;;;;;5.45;2.10;;;;;;;12.47;51.51;100818.06;5059751;28;20037;-76
2021/05/10 00:51:36;;;;;;;4.47;1.90;;;;;;;12.26;51.25;100814.81;5057163;28;20082;-69
2021/05/10 00:54:02;;;;;;;7.63;1.75;;;;;;;12.22;52.77;100827.53;5058532;28;20047;-69
2021/05/10 00:56:28;;;;;;;6.45;1.75;;;;;;;12.19;52.18;100832.31;5059112;28;20020;-69
2021/05/10 00:58:54;;;;;;;2.53;1.67;;;;;;;12.14;51.88;100822.13;5058306;28;20045;-69
2021/05/10 01:01:19;;;;;;;5.63;1.60;;;;;;;12.24;51.64;100822.91;5059780;28;20391;-77
2021/05/10 01:03:49;;;;;;;4.68;1.50;;;;;;;12.27;51.71;100827.94;5061522;28;20119;-77
2021/05/10 01:06:15;;;;;;;4.47;1.80;;;;;;;12.37;51.28;100822.59;5058074;28;20238;-77
2021/05/10 01:08:41;;;;;;;6.07;1.75;;;;;;;12.01;51.04;100769.38;5058833;28;20037;-77
2021/05/10 01:11:06;;;;;;;3.30;2.15;;;;;;;12.37;51.60;100823.41;5061245;28;20265;-70
2021/05/10 01:13:32;;;;;;;3.65;1.63;;;;;;;12.04;51.93;100781.50;5062030;28;20044;-76
2021/05/10 01:15:58;;;;;;;3.35;1.90;;;;;;;12.31;50.60;100820.50;5057884;28;20057;-77
2021/05/10 01:18:23;;;;;;;3.92;1.55;;;;;;;12.14;51.19;100825.63;5077629;28;20059;-77
2021/05/10 01:20:51;;;;;;;2.67;1.67;;;;;;;12.17;51.09;100821.00;5061408;28;20047;-77
2021/05/10 01:23:17;;;;;;;2.17;1.85;;;;;;;12.14;51.45;100819.47;5058019;28;20072;-77
2021/05/10 01:25:44;;;;;;;2.75;1.80;;;;;;;12.22;52.46;100816.91;5058641;28;20040;-69
2021/05/10 01:28:09;;;;;;;4.00;1.70;;;;;;;12.25;51.18;100818.44;5061914;28;20055;-69
2021/05/10 01:30:41;;;;;;;2.65;1.63;;;;;;;12.24;52.20;100820.25;5061297;28;20033;-70
2021/05/10 01:33:08;;;;;;;4.82;1.80;;;;;;;12.28;52.05;100821.66;5057880;28;20060;-70
2021/05/10 01:35:40;;;;;;;2.10;1.65;;;;;;;12.25;51.85;100818.44;5055122;28;20029;-77
2021/05/10 01:38:07;;;;;;;4.18;1.70;;;;;;;12.20;51.70;100812.75;5057727;28;20029;-69
2021/05/10 01:40:32;;;;;;;2.83;1.63;;;;;;;12.19;52.24;100816.38;5061689;28;20041;-70
2021/05/10 01:42:58;;;;;;;6.53;2.03;;;;;;;12.21;51.48;100823.22;5060393;28;20067;-70
2021/05/10 01:45:24;;;;;;;6.47;1.88;;;;;;;12.14;52.82;100816.81;5057798;28;20048;-76
2021/05/10 01:47:58;;;;;;;3.67;2.03;;;;;;;12.15;52.33;100818.50;5061206;28;20029;-77
2021/05/10 01:50:24;;;;;;;6.53;2.40;;;;;;;11.94;52.87;100809.91;5058325;28;20052;-69
2021/05/10 01:52:49;;;;;;;5.22;2.50;;;;;;;11.79;53.34;100809.53;5057677;28;20218;-77
2021/05/10 01:55:16;;;;;;;6.53;2.10;;;;;;;11.92;53.17;100820.66;5058747;28;20351;-69
2021/05/10 01:57:47;;;;;;;5.80;2.20;;;;;;;11.86;53.46;100823.06;5059875;28;20074;-73
2021/05/10 02:00:16;;;;;;;7.15;2.70;;;;;;;11.84;53.61;100815.25;5060879;28;20029;-69
2021/05/10 02:02:43;;;;;;;3.95;2.45;;;;;;;11.88;53.53;100821.09;5057268;28;20051;-76
2021/05/10 02:05:11;;;;;;;6.97;2.70;;;;;;;11.83;53.56;100819.72;5058532;28;20044;-77
2021/05/10 02:07:57;;;;;;;7.47;2.80;;;;;;;11.65;54.51;100818.75;5057982;28;20064;-69
2021/05/10 02:10:44;;;;;;;3.42;2.30;;;;;;;11.63;53.86;100826.00;5057228;28;20049;-69
2021/05/10 02:13:12;;;;;;;5.18;2.42;;;;;;;11.59;54.63;100823.78;5059795;28;20049;-77
2021/05/10 02:15:41;;;;;;;3.03;2.00;;;;;;;11.58;54.06;100817.66;5060639;28;20035;-76
2021/05/10 02:18:09;;;;;;;3.80;2.20;;;;;;;11.50;54.03;100826.31;5057454;28;20238;-76
2021/05/10 02:20:35;;;;;;;7.82;2.25;;;;;;;11.58;53.93;100824.78;5058121;28;20065;-69
2021/05/10 02:23:07;;;;;;;3.50;2.17;;;;;;;11.65;54.28;100831.19;5057695;28;20156;-76
2021/05/10 02:25:38;;;;;;;4.03;2.15;;;;;;;11.72;53.78;100832.28;5057125;28;20024;-77
2021/05/10 02:28:05;;;;;;;3.97;2.15;;;;;;;11.71;53.77;100833.25;5058325;28;20235;-70
2021/05/10 02:30:33;;;;;;;6.75;2.58;;;;;;;11.75;53.82;100832.84;5056976;28;20059;-69
2021/05/10 02:33:00;;;;;;;2.60;2.00;;;;;;;11.79;53.50;100828.94;5057437;28;20250;-77
2021/05/10 02:35:26;;;;;;;11.02;2.53;;;;;;;11.88;52.98;100837.88;5057644;28;20082;-77
2021/05/10 02:37:52;;;;;;;4.68;2.22;;;;;;;11.87;52.63;100838.00;5057285;28;20099;-77
2021/05/10 02:40:17;;;;;;;5.63;2.40;;;;;;;11.80;52.54;100838.56;5057476;28;20215;-77
2021/05/10 02:42:44;;;;;;;4.20;2.45;;;;;;;11.80;52.02;100835.91;5058189;28;20036;-69
2021/05/10 02:45:10;;;;;;;3.75;2.10;;;;;;;11.78;52.51;100840.53;5057131;28;20245;-69
2021/05/10 02:47:38;;;;;;;4.88;2.15;;;;;;;11.78;52.48;100837.88;5061041;28;20025;-77
2021/05/10 02:50:08;;;;;;;5.30;2.33;;;;;;;11.88;51.64;100839.69;5059550;28;20025;-69
2021/05/10 02:52:34;;;;;;;8.02;2.60;;;;;;;11.83;53.36;100840.94;5054227;28;20035;-77
2021/05/10 02:54:59;;;;;;;11.02;2.63;;;;;;;11.70;53.53;100845.69;5057577;28;20204;-77
2021/05/10 02:57:25;;;;;;;13.63;3.20;;;;;;;11.57;54.20;100841.66;5060155;28;20035;-69
2021/05/10 02:59:51;;;;;;;7.78;2.33;;;;;;;11.63;54.00;100843.75;5061502;28;20400;-69
2021/05/10 03:02:17;;;;;;;7.57;3.03;;;;;;;11.51;54.30;100838.59;5060595;28;20031;-77
2021/05/10 03:04:43;;;;;;;9.20;3.05;;;;;;;11.38;54.58;100845.13;5064056;28;20070;-69
2021/05/10 03:07:08;;;;;;;12.25;3.03;;;;;;;11.37;54.61;100846.13;5062937;28;20084;-77
2021/05/10 03:09:33;;;;;;;17.08;3.55;;;;;;;11.31;55.44;100834.25;5061026;28;20095;-73
2021/05/10 03:11:59;;;;;;;17.90;4.10;;;;;;;11.41;55.81;100848.34;5060528;28;20099;-69
2021/05/10 03:14:25;;;;;;;12.25;3.22;;;;;;;11.44;55.32;100845.44;5063228;28;20045;-69
2021/05/10 03:16:51;;;;;;;9.90;3.50;;;;;;;11.45;55.74;100840.97;5063921;28;20078;-70
2021/05/10 03:19:18;;;;;;;10.57;3.40;;;;;;;11.44;55.28;100845.44;5060794;28;20052;-69
2021/05/10 03:21:44;;;;;;;10.10;3.22;;;;;;;11.31;55.00;100846.69;5060655;28;20035;-69
2021/05/10 03:24:10;;;;;;;11.00;3.13;;;;;;;11.20;55.38;100853.78;5061202;28;20349;-76
2021/05/10 03:26:36;;;;;;;10.10;3.38;;;;;;;11.32;55.00;100856.31;5060210;28;20366;-77
2021/05/10 03:29:03;;;;;;;11.57;3.25;;;;;;;11.52;54.18;100860.66;5061058;28;20100;-70
2021/05/10 03:31:29;;;;;;;9.75;3.22;;;;;;;11.40;53.98;100846.66;5059615;28;20540;-69
2021/05/10 03:33:55;;;;;;;9.20;3.30;;;;;;;11.51;54.28;100859.81;5059999;28;20076;-77
2021/05/10 03:36:20;;;;;;;11.30;3.78;;;;;;;11.68;53.75;100852.97;5061313;28;20088;-77
2021/05/10 03:38:46;;;;;;;10.68;5.40;;;;;;;11.69;53.62;100859.94;5059898;28;20366;-77
2021/05/10 03:41:11;;;;;;;13.50;5.25;;;;;;;11.73;53.66;100856.03;5068748;28;20074;-70
2021/05/10 03:43:37;;;;;;;13.18;4.97;;;;;;;11.77;53.74;100853.91;5060587;28;20027;-69
2021/05/10 03:46:02;;;;;;;12.98;3.50;;;;;;;11.70;53.68;100852.81;5060108;28;20036;-69
2021/05/10 03:48:28;;;;;;;6.28;3.90;;;;;;;11.83;54.30;100858.69;5063235;28;20025;-69
2021/05/10 03:50:53;;;;;;;13.13;3.55;;;;;;;11.95;53.49;100856.69;5063224;28;20092;-77
2021/05/10 03:53:20;;;;;;;9.25;3.60;;;;;;;11.95;53.34;100862.00;5060318;28;20032;-69
2021/05/10 03:55:46;;;;;;;10.23;3.25;;;;;;;11.92;53.56;100855.16;5061786;28;20091;-70
2021/05/10 03:58:11;;;;;;;9.77;3.30;;;;;;;11.97;53.22;100854.75;5064743;28;20296;-71
2021/05/10 04:00:37;;;;;;;10.50;3.50;;;;;;;12.08;52.98;100857.22;5063919;28;20040;-77
2021/05/10 04:03:04;;;;;;;12.02;3.13;;;;;;;12.23;53.31;100861.06;5064071;28;20074;-67
2021/05/10 04:15:48;;;;;;;18.48;2.83;;;;;;;12.71;52.06;100855.56;5059713;28;20341;-74
2021/05/10 04:18:15;;;;;;;4.63;2.70;;;;;;;12.74;51.39;100855.28;5060982;28;20452;-67
2021/05/10 04:20:40;;;;;;;4.97;2.50;;;;;;;12.90;50.58;100846.63;5061827;28;20074;-67
2021/05/10 04:23:06;;;;;;;9.98;3.42;;;;;;;12.98;50.52;100845.88;5060502;28;20032;-75
2021/05/10 04:25:31;;;;;;;8.07;2.75;;;;;;;12.90;49.99;100828.03;5057694;28;20040;-67
2021/05/10 04:27:57;;;;;;;15.25;3.38;;;;;;;12.99;50.53;100858.19;5059045;28;20256;-74
2021/05/10 04:30:23;;;;;;;6.05;3.17;;;;;;;13.07;50.77;100864.44;5059563;28;20045;-73
2021/05/10 04:32:49;;;;;;;6.30;2.55;;;;;;;13.21;50.88;100870.25;5059167;28;20033;-67
2021/05/10 04:35:14;;;;;;;7.20;2.70;;;;;;;13.50;49.40;100872.66;5055961;28;20045;-70
2021/05/10 04:37:40;;;;;;;3.60;2.40;;;;;;;13.99;48.53;100874.72;5059602;28;20037;-70
2021/05/10 04:40:07;;;;;;;9.07;3.10;;;;;;;14.20;47.04;100874.34;5062005;28;20037;-70
2021/05/10 04:42:32;;;;;;;10.43;2.97;;;;;;;14.47;46.32;100865.34;5062691;28;20326;-70
2021/05/10 04:44:58;;;;;;;8.35;3.22;;;;;;;14.85;46.08;100872.03;5059821;28;20033;-77
2021/05/10 04:47:23;;;;;;;6.18;2.85;;;;;;;14.96;45.54;100870.88;5058535;28;20216;-77
2021/05/10 04:49:49;;;;;;;7.13;2.78;;;;;;;15.24;44.83;100877.63;5058717;28;20055;-69
2021/05/10 04:52:14;;;;;;;8.27;2.92;;;;;;;15.48;43.65;100868.78;5059503;28;20070;-77
2021/05/10 04:54:40;;;;;;;6.25;2.80;;;;;;;15.79;43.39;100877.03;5058223;28;20039;-77
2021/05/10 04:57:05;;;;;;;6.10;2.50;;;;;;;16.14;41.36;100883.81;5059799;28;20045;-77
2021/05/10 04:59:31;;;;;;;7.68;2.97;;;;;;;16.05;41.76;100862.63;5060564;28;20079;-70
2021/05/10 05:01:56;;;;;;;8.70;2.70;;;;;;;16.14;42.00;100877.63;5058495;28;20106;-74
2021/05/10 05:04:22;;;;;;;8.40;2.75;;;;;;;16.51;41.24;100885.88;5059094;28;20035;-74
2021/05/10 05:06:47;;;;;;;4.75;2.45;;;;;;;17.04;39.67;100878.16;5058212;28;20024;-75
2021/05/10 05:09:13;;;;;;;10.20;2.85;;;;;;;17.20;39.67;100880.72;5059136;28;20041;-75
2021/05/10 05:11:38;;;;;;;17.10;3.15;;;;;;;17.69;38.64;100875.91;5067338;28;20135;-75
2021/05/10 05:14:04;;;;;;;9.45;3.05;;;;;;;17.97;37.83;100886.03;5058238;28;20020;-67
2021/05/10 05:16:31;;;;;;;6.50;2.72;;;;;;;18.00;37.71;100877.63;5059112;28;20039;-68
2021/05/10 05:18:56;;;;;;;6.80;3.35;;;;;;;18.11;37.70;100879.84;5056795;28;20036;-67
2021/05/10 05:21:22;;;;;;;8.63;3.28;;;;;;;18.47;36.89;100882.63;5056695;28;20095;-67
2021/05/10 05:23:47;;;;;;;11.23;2.83;;;;;;;18.46;36.82;100879.13;5072876;28;20016;-74
2021/05/10 05:26:12;;;;;;;6.57;3.20;;;;;;;18.75;36.13;100869.44;5057975;28;20029;-67
2021/05/10 05:28:38;;;;;;;6.35;2.00;;;;;;;18.77;35.67;100875.44;5059444;28;20016;-74
2021/05/10 05:31:05;;;;;;;6.85;1.95;;;;;;;18.11;36.02;100872.63;5057728;28;20270;-67
2021/05/10 05:33:31;;;;;;;4.30;2.20;;;;;;;18.37;35.10;100869.50;5058733;28;20334;-68
2021/05/10 05:35:56;;;;;;;2.03;1.73;;;;;;;18.48;35.18;100873.56;5061299;28;20032;-68
2021/05/10 05:38:22;;;;;;;3.97;2.40;;;;;;;18.10;35.61;100879.03;5060122;28;20044;-68
2021/05/10 05:40:48;;;;;;;4.93;2.13;;;;;;;18.41;34.87;100881.53;5057646;28;20024;-67
2021/05/10 05:43:14;;;;;;;6.28;2.20;;;;;;;19.19;33.99;100879.22;5059428;28;20040;-68
2021/05/10 05:45:41;;;;;;;2.88;1.92;;;;;;;19.42;34.12;100869.94;5058526;28;20048;-68
2021/05/10 05:48:09;;;;;;;4.47;1.80;;;;;;;18.45;35.28;100871.25;5057980;28;20020;-75
2021/05/10 05:50:35;;;;;;;4.63;2.03;;;;;;;17.77;36.16;100866.94;5058656;28;20067;-74
2021/05/10 05:53:01;;;;;;;4.65;2.35;;;;;;;17.71;36.75;100881.06;5056424;28;20063;-74
2021/05/10 05:55:27;;;;;;;5.70;2.17;;;;;;;18.18;36.18;100867.38;5057508;28;20036;-74
2021/05/10 05:57:53;;;;;;;4.00;2.20;;;;;;;18.73;35.53;100883.03;5072904;28;20331;-68
2021/05/10 06:00:19;;;;;;;6.25;2.20;;;;;;;19.32;34.10;100871.31;5056627;28;20029;-75
2021/05/10 06:02:45;;;;;;;3.50;2.00;;;;;;;19.80;33.07;100867.03;5055589;28;20073;-75
2021/05/10 06:05:12;;;;;;;5.95;2.10;;;;;;;19.94;33.13;100873.34;5057603;28;20041;-75
2021/05/10 06:07:41;;;;;;;3.75;2.47;;;;;;;20.29;32.49;100866.13;5056356;28;20413;-75
2021/05/10 06:10:09;;;;;;;3.67;2.17;;;;;;;20.63;32.33;100868.81;5055476;28;20227;-74
2021/05/10 06:12:35;;;;;;;5.78;2.05;;;;;;;20.20;32.58;100860.06;5056750;28;20244;-75
2021/05/10 06:15:01;;;;;;;3.45;2.42;;;;;;;20.40;32.08;100866.44;5072531;28;20092;-68
2021/05/10 06:17:27;;;;;;;6.00;2.55;;;;;;;20.73;31.45;100847.72;5056331;28;20063;-68
2021/05/10 06:19:53;;;;;;;4.80;2.03;;;;;;;20.92;31.55;100829.19;5056413;28;20059;-68
2021/05/10 06:22:19;;;;;;;5.63;2.38;;;;;;;20.09;33.07;100863.31;5057674;28;20071;-68
2021/05/10 06:24:44;;;;;;;5.65;2.30;;;;;;;20.09;33.02;100855.25;5073048;28;20017;-75
2021/05/10 06:27:10;;;;;;;2.63;2.10;;;;;;;20.37;33.18;100861.41;5056282;28;20036;-74
2021/05/10 06:29:35;;;;;;;3.97;2.47;;;;;;;20.08;32.98;100857.09;5056668;28;20033;-68
2021/05/10 06:32:01;;;;;;;4.47;1.90;;;;;;;20.19;33.19;100836.91;5061380;28;20029;-68
2021/05/10 06:34:26;;;;;;;7.72;2.70;;;;;;;20.70;31.69;100860.75;5060787;28;20036;-74
2021/05/10 06:36:51;;;;;;;8.88;2.90;;;;;;;20.79;31.72;100856.03;5060390;28;20033;-73
2021/05/10 06:39:17;;;;;;;3.60;2.33;;;;;;;20.55;31.91;100854.69;5064851;28;20037;-75
2021/05/10 06:41:42;;;;;;;6.18;2.10;;;;;;;21.11;31.66;100844.56;5061062;28;20043;-75
2021/05/10 06:44:08;;;;;;;8.88;3.13;;;;;;;21.81;30.17;100847.72;5075474;28;20031;-67
2021/05/10 06:46:33;;;;;;;6.80;3.13;;;;;;;22.18;29.78;100849.81;5061018;28;20219;-77
2021/05/10 06:48:59;;;;;;;13.95;3.22;;;;;;;22.52;29.02;100842.44;5059888;28;20330;-77
2021/05/10 06:51:24;;;;;;;4.70;2.50;;;;;;;22.76;28.68;100840.88;5058643;28;20032;-76
2021/05/10 06:53:50;;;;;;;9.00;2.95;;;;;;;22.96;28.75;100830.03;5059919;28;20035;-77
2021/05/10 06:56:16;;;;;;;4.45;2.63;;;;;;;23.13;28.20;100833.88;5077761;28;20191;-70
2021/05/10 06:58:42;;;;;;;9.70;3.13;;;;;;;23.42;27.60;100818.91;5063762;28;20040;-77
2021/05/10 07:01:07;;;;;;;5.97;2.55;;;;;;;23.53;27.71;100826.31;5060876;28;20032;-77
2021/05/10 07:03:32;;;;;;;6.05;2.95;;;;;;;23.78;27.23;100832.56;5060878;28;20025;-70
2021/05/10 07:05:58;;;;;;;8.85;3.47;;;;;;;23.64;27.82;100828.31;5059589;28;20036;-69
2021/05/10 07:08:23;;;;;;;6.20;2.55;;;;;;;23.97;26.72;100814.50;5059347;28;20323;-69
2021/05/10 07:10:51;;;;;;;7.63;2.78;;;;;;;24.02;27.36;100825.47;5059967;28;20035;-77
2021/05/10 07:13:18;;;;;;;9.32;3.15;;;;;;;23.90;27.27;100821.84;5060489;28;20079;-69
2021/05/10 07:15:44;;;;;;;8.10;2.80;;;;;;;22.75;28.84;100812.22;5059499;28;20031;-76
2021/05/10 07:18:12;;;;;;;8.10;2.95;;;;;;;22.10;29.82;100816.84;5059572;28;20270;-77
2021/05/10 07:20:39;;;;;;;6.60;3.03;;;;;;;21.84;30.41;100826.56;5059198;28;20070;-77
2021/05/10 07:23:06;;;;;;;8.02;3.10;;;;;;;21.76;30.84;100802.53;5076022;28;20071;-70
2021/05/10 07:25:33;;;;;;;8.15;2.95;;;;;;;21.95;30.43;100819.75;5063394;28;20092;-77
2021/05/10 07:27:59;;;;;;;4.45;2.97;;;;;;;22.53;30.14;100812.53;5059027;28;20033;-77
2021/05/10 07:30:24;;;;;;;9.30;2.92;;;;;;;22.81;29.21;100806.81;5059215;28;20246;-70
2021/05/10 07:32:49;;;;;;;5.97;2.83;;;;;;;22.70;29.49;100812.03;5060341;28;20041;-69
2021/05/10 07:35:15;;;;;;;7.65;3.30;;;;;;;22.07;30.47;100803.78;5063895;28;20029;-70
2021/05/10 07:37:41;;;;;;;5.13;2.50;;;;;;;22.20;30.48;100803.75;5062837;28;20037;-77
2021/05/10 07:40:08;;;;;;;6.60;2.95;;;;;;;22.26;30.50;100800.19;5079036;28;20044;-70
2021/05/10 07:42:33;;;;;;;9.27;3.05;;;;;;;22.44;30.84;100804.91;5062252;28;20337;-77
2021/05/10 07:44:59;;;;;;;6.78;2.97;;;;;;;21.64;31.05;100793.41;5062967;28;20032;-70
2021/05/10 07:47:25;;;;;;;7.72;2.90;;;;;;;21.98;30.60;100808.53;5063360;28;20039;-70
2021/05/10 07:49:51;;;;;;;6.95;2.85;;;;;;;21.98;29.66;100787.78;5063270;28;20032;-76
2021/05/10 07:52:16;;;;;;;6.53;3.03;;;;;;;22.41;29.12;100799.94;5079002;28;20033;-77
2021/05/10 07:54:42;;;;;;;7.10;3.08;;;;;;;22.54;29.33;100797.16;5063156;28;20033;-70
2021/05/10 07:57:07;;;;;;;5.70;2.58;;;;;;;22.84;28.61;100795.59;5063591;28;20033;-69
2021/05/10 07:59:34;;;;;;;5.93;2.30;;;;;;;23.02;28.16;100789.47;5062800;28;20027;-76
2021/05/10 08:02:01;;;;;;;8.07;2.72;;;;;;;23.67;27.41;100794.59;5063219;28;20318;-76
2021/05/10 08:04:26;;;;;;;9.48;3.33;;;;;;;23.90;27.87;100797.50;5062064;28;20124;-76
2021/05/10 08:06:53;;;;;;;7.25;2.67;;;;;;;24.26;27.24;100794.00;5062776;28;20247;-77
2021/05/10 08:09:18;;;;;;;6.88;2.78;;;;;;;24.68;26.36;100777.88;5062172;28;20032;-74
2021/05/10 08:11:44;;;;;;;6.93;2.80;;;;;;;24.92;26.04;100784.19;5062944;28;20100;-75
2021/05/10 08:14:09;;;;;;;9.05;3.35;;;;;;;25.18;25.72;100781.13;5062009;28;20041;-75
2021/05/10 08:16:35;;;;;;;7.30;2.78;;;;;;;25.08;25.53;100773.56;5062819;28;20031;-68
2021/05/10 08:19:00;;;;;;;5.60;2.80;;;;;;;24.69;25.77;100768.69;5061824;28;20059;-68
2021/05/10 08:21:26;;;;;;;6.30;2.85;;;;;;;24.96;24.95;100763.72;5062756;28;20028;-67
2021/05/10 08:23:51;;;;;;;7.93;3.00;;;;;;;24.86;25.07;100755.31;5062443;28;20237;-68
2021/05/10 08:26:17;;;;;;;9.52;3.00;;;;;;;23.44;28.41;100763.59;5062551;28;20241;-75
2021/05/10 08:28:42;;;;;;;6.85;2.45;;;;;;;23.54;26.99;100765.78;5062211;28;20055;-68
2021/05/10 08:31:08;;;;;;;7.40;2.72;;;;;;;23.92;26.57;100765.63;5061599;28;20039;-75
2021/05/10 08:33:33;;;;;;;8.00;2.65;;;;;;;24.54;25.63;100760.97;5062422;28;20071;-74
2021/05/10 08:35:59;;;;;;;4.88;2.55;;;;;;;23.80;26.18;100751.19;5063057;28;20017;-77
2021/05/10 08:38:24;;;;;;;6.35;2.47;;;;;;;23.85;26.10;100754.88;5062499;28;20033;-71
2021/05/10 08:40:51;;;;;;;7.90;2.80;;;;;;;23.29;26.89;100763.09;5062472;28;20353;-70
2021/05/10 08:43:24;;;;;;;3.83;2.65;;;;;;;22.62;28.26;100764.53;5062378;28;20043;-69
2021/05/10 08:45:54;;;;;;;10.98;3.15;;;;;;;23.11;27.52;100760.31;5070379;28;20254;-76
2021/05/10 08:48:22;;;;;;;6.70;2.70;;;;;;;23.15;27.62;100754.25;5062436;28;20049;-69
2021/05/10 08:50:48;;;;;;;5.95;2.08;;;;;;;23.08;27.03;100753.50;5059953;28;20070;-76
2021/05/10 08:53:14;;;;;;;6.40;2.10;;;;;;;22.93;26.21;100755.69;5061001;28;20108;-69
2021/05/10 08:55:40;;;;;;;3.50;1.70;;;;;;;22.85;26.44;100754.03;5077169;28;20066;-76
2021/05/10 08:58:08;;;;;;;5.25;2.00;;;;;;;23.19;26.00;100758.19;5061381;28;20032;-76
2021/05/10 09:00:48;;;;;;;9.52;1.83;;;;;;;23.45;25.24;100748.19;5061331;28;20211;-76
2021/05/10 09:03:13;;;;;;;2.83;1.65;;;;;;;23.92;25.10;100746.69;5061613;28;20063;-77
2021/05/10 09:05:50;;;;;;;6.00;2.20;;;;;;;23.76;25.62;100737.31;5061881;28;20037;-69
2021/05/10 09:08:16;;;;;;;5.55;2.08;;;;;;;22.20;27.06;100726.34;5061173;28;20044;-76
2021/05/10 09:11:09;;;;;;;3.28;1.73;;;;;;;22.87;25.83;100729.50;5061630;28;20045;-76
2021/05/10 09:13:36;;;;;;;3.70;1.70;;;;;;;22.59;27.89;100732.56;5061830;28;20044;-77
2021/05/10 09:16:03;;;;;;;6.70;1.88;;;;;;;22.32;26.93;100733.75;5062304;28;20039;-75
2021/05/10 09:18:29;;;;;;;2.60;1.52;;;;;;;21.99;27.22;100707.72;5061857;28;20258;-74
2021/05/10 09:20:54;;;;;;;5.68;1.63;;;;;;;21.75;28.52;100724.56;5061857;28;20036;-74
2021/05/10 09:23:20;;;;;;;5.43;1.60;;;;;;;21.49;29.38;100711.97;5076852;28;20119;-77
2021/05/10 09:25:53;;;;;;;2.25;1.42;;;;;;;22.08;28.02;100708.34;5061599;28;20035;-77
2021/05/10 09:28:21;;;;;;;7.97;1.98;;;;;;;22.54;28.00;100708.94;5061816;28;20032;-76
2021/05/10 09:30:54;;;;;;;3.83;1.52;;;;;;;22.36;28.05;100705.31;5061395;28;20100;-70
2021/05/10 09:33:24;;;;;;;7.07;1.80;;;;;;;22.33;28.89;100697.63;5061178;28;20033;-75
2021/05/10 09:35:54;;;;;;;2.20;1.73;;;;;;;21.08;29.59;100693.34;5061839;28;20113;-67
2021/05/10 09:38:22;;;;;;;3.00;1.50;;;;;;;20.49;30.63;100694.91;5061668;28;20096;-67
2021/05/10 09:41:02;;;;;;;3.65;1.80;;;;;;;20.47;32.18;100688.91;5061321;28;20033;-74
2021/05/10 09:43:34;;;;;;;6.55;2.28;;;;;;;20.82;30.72;100692.28;5061408;28;20043;-74
2021/05/10 09:46:04;;;;;;;4.53;1.80;;;;;;;20.98;31.10;100685.66;5061568;28;20043;-67
2021/05/10 09:48:35;;;;;;;7.25;1.75;;;;;;;20.45;33.10;100685.56;5061234;28;20315;-67
2021/05/10 09:51:03;;;;;;;8.80;2.38;;;;;;;20.42;31.90;100677.09;5060856;28;20028;-67
2021/05/10 09:53:39;;;;;;;11.85;2.35;;;;;;;20.64;32.98;100676.72;5058108;28;20033;-77
2021/05/10 09:58:55;;;;;;;9.38;1.73;;;;;;;21.31;30.96;100675.72;5057776;28;20261;-75
2021/05/10 10:01:22;;;;;;;6.43;1.63;;;;;;;21.51;31.04;100664.91;5057143;28;20045;-69
2021/05/10 10:04:00;;;;;;;5.00;1.55;;;;;;;20.81;32.21;100666.41;5057007;28;20338;-69
2021/05/10 10:06:28;;;;;;;8.38;1.50;;;;;;;20.71;32.89;100665.94;5055604;28;20056;-69
2021/05/10 10:08:55;;;;;;;5.97;1.50;;;;;;;20.67;32.52;100662.03;5057476;28;20350;-76
2021/05/10 10:11:22;;;;;;;8.10;1.95;;;;;;;20.77;32.37;100661.63;5056557;28;20091;-67
2021/05/10 10:13:49;;;;;;;5.60;1.50;;;;;;;20.55;31.15;100656.41;5056857;28;20049;-74
2021/05/10 10:16:20;;;;;;;15.73;1.90;;;;;;;20.74;31.16;100646.69;5057849;28;20219;-68
2021/05/10 10:18:47;;;;;;;6.43;1.55;;;;;;;20.83;32.39;100640.13;5057307;28;20037;-74
2021/05/10 10:21:15;;;;;;;5.72;1.40;;;;;;;21.00;32.59;100643.22;5056565;28;20029;-73
2021/05/10 10:23:41;;;;;;;2.63;1.30;;;;;;;20.99;32.80;100634.31;5056070;28;20330;-77
2021/05/10 10:26:10;;;;;;;6.03;1.50;;;;;;;20.81;31.56;100634.09;5057696;28;20035;-69
2021/05/10 10:28:38;;;;;;;3.65;1.20;;;;;;;20.29;33.85;100619.50;5056609;28;20017;-74
2021/05/10 10:31:07;;;;;;;7.57;1.90;;;;;;;20.57;33.26;100611.28;5055040;28;20319;-77
2021/05/10 10:33:39;;;;;;;5.38;1.55;;;;;;;21.09;31.64;100624.97;5057796;28;20032;-70
2021/05/10 10:36:14;;;;;;;2.83;1.50;;;;;;;21.26;32.21;100604.66;5060050;28;20092;-69
2021/05/10 10:38:39;;;;;;;5.75;1.52;;;;;;;20.78;30.26;100594.13;5059333;28;20051;-67
2021/05/10 10:41:15;;;;;;;4.38;1.50;;;;;;;20.76;31.72;100609.66;5055826;28;20559;-74
2021/05/10 10:43:40;;;;;;;5.88;1.50;;;;;;;21.10;30.88;100605.91;5055421;28;20219;-77
2021/05/10 10:46:16;;;;;;;5.55;2.00;;;;;;;21.21;31.59;100607.13;5071871;28;20037;-76
2021/05/10 10:48:42;;;;;;;4.88;1.70;;;;;;;20.78;32.73;100595.97;5056009;28;20108;-77
2021/05/10 10:51:07;;;;;;;3.70;1.63;;;;;;;20.75;33.85;100589.16;5056994;28;20025;-69
2021/05/10 10:53:47;;;;;;;3.78;1.90;;;;;;;20.65;32.91;100561.81;5056324;28;20036;-67
2021/05/10 10:56:13;;;;;;;5.15;1.63;;;;;;;21.04;33.10;100586.03;5056659;28;20059;-70
2021/05/10 10:58:44;;;;;;;6.13;2.10;;;;;;;20.82;31.97;100579.22;5060577;28;20059;-69
2021/05/10 11:01:13;;;;;;;3.35;1.80;;;;;;;20.87;31.99;100576.75;5060644;28;20060;-70
2021/05/10 11:03:39;;;;;;;3.38;1.70;;;;;;;20.75;31.54;100567.63;5060527;28;20051;-77
2021/05/10 11:06:07;;;;;;;3.25;1.67;;;;;;;20.56;31.99;100571.16;5060481;28;20056;-70
2021/05/10 11:08:53;;;;;;;5.28;1.85;;;;;;;20.88;31.07;100554.19;5060111;28;20223;-77
2021/05/10 11:11:30;;;;;;;4.85;1.60;;;;;;;20.83;32.91;100575.50;5075563;28;20368;-70
2021/05/10 11:13:58;;;;;;;11.20;1.83;;;;;;;20.85;32.97;100564.53;5060187;28;20043;-69
2021/05/10 11:16:53;;;;;;;1.98;1.42;;;;;;;20.91;32.32;100567.22;5060348;28;20029;-77
2021/05/10 11:19:36;;;;;;;32.75;3.50;;;;;;;21.01;30.19;100558.72;5079129;28;20068;-77
2021/05/10 11:22:28;;;;;;;5.57;2.20;;;;;;;20.85;29.40;100551.06;5063604;28;20029;-76
2021/05/10 11:24:53;;;;;;;2.95;1.77;;;;;;;20.97;30.10;100544.00;5058296;28;20121;-70
2021/05/10 11:27:28;;;;;;;4.70;1.48;;;;;;;21.14;29.38;100547.06;5064381;28;20037;-77
2021/05/10 11:29:56;;;;;;;3.95;1.73;;;;;;;21.18;30.42;100541.06;5063074;28;20262;-70
2021/05/10 11:32:22;;;;;;;10.25;1.90;;;;;;;20.96;31.01;100553.13;5063988;28;20075;-69
2021/05/10 11:34:48;;;;;;;4.45;1.50;;;;;;;21.00;28.73;100536.34;5063507;28;20025;-77
2021/05/10 11:37:26;;;;;;;2.42;1.40;;;;;;;20.84;28.65;100534.09;5064069;28;20056;-74